Terminal Aerodrome Forecast
Issued by NWS

Home | Current Version | Previous Version | Graphics & Text | Print | Product List | Glossary On
Versions: 1 2 3 4 5 6 7 8 9 10 11 12 13 14 15 16 17 18
000
FTUS42 KMHX 210300 AAB
TAFISO
TAF AMD
KISO 210359Z 2104/2124 01005KT P6SM VCSH BKN015
      TEMPO 2104/2106 BKN008
     FM210600 01008KT 6SM BR VCSH BKN010
     FM211400 34007KT P6SM SCT010 SCT200
      AMD LTD TO CLD VIS AND WIND=

USA.gov is the U.S. government's official web portal to all federal, state and local government web resources and services.